Time;durP1;ratioP1;P1;durP2;ratioP2;P2;SDS_P1;SDS_P2;PMS_P1;PMS_P2;Temp;Humidity;BMP_temperature;BMP_pressure;BME280_temperature;BME280_humidity;BME280_pressure;Samples;Min_cycle;Max_cycle;Signal;HPM_P1;HPM_P2
2021/12/15 00:01:30;;;;;;;26.95;19.35;;;;;;;;;;10234496;28;20802;-54
2021/12/15 00:06:28;;;;;;;29.77;18.25;;;;;;;;;;10232112;28;20067;-54
2021/12/15 00:11:35;;;;;;;33.55;20.73;;;;;;;;;;10242087;28;20521;-52
2021/12/15 00:16:33;;;;;;;27.23;18.63;;;;;;;;;;10243272;28;20459;-54
2021/12/15 00:21:31;;;;;;;26.55;17.95;;;;;;;;;;10230918;28;20041;-53
2021/12/15 00:26:31;;;;;;;24.88;16.70;;;;;;;;;;10231339;28;20088;-55
2021/12/15 00:31:32;;;;;;;26.27;15.00;;;;;;;;;;10241397;28;20455;-52
2021/12/15 00:36:30;;;;;;;25.60;16.92;;;;;;;;;;10240974;28;20129;-54
2021/12/15 00:41:32;;;;;;;26.42;15.70;;;;;;;;;;10230614;28;20084;-54
2021/12/15 00:46:30;;;;;;;23.55;16.63;;;;;;;;;;10233021;28;20049;-53
2021/12/15 00:51:28;;;;;;;22.10;15.23;;;;;;;;;;10237987;28;20080;-52
2021/12/15 00:56:27;;;;;;;22.98;14.55;;;;;;;;;;10252360;28;20091;-52
2021/12/15 01:01:27;;;;;;;22.20;15.98;;;;;;;;;;10237284;28;20490;-54
2021/12/15 01:06:26;;;;;;;18.85;14.23;;;;;;;;;;10249513;28;20049;-53
2021/12/15 01:11:31;;;;;;;21.60;14.90;;;;;;;;;;10247474;28;20075;-53
2021/12/15 01:21:49;;;;;;;31.52;17.70;;;;;;;;;;10268760;28;20055;-53
2021/12/15 01:26:48;;;;;;;53.22;21.88;;;;;;;;;;10247583;28;20083;-52
2021/12/15 01:31:48;;;;;;;73.88;29.52;;;;;;;;;;10234616;28;20037;-54
2021/12/15 01:36:46;;;;;;;41.22;23.73;;;;;;;;;;10248403;28;20049;-52
2021/12/15 01:41:45;;;;;;;40.30;21.02;;;;;;;;;;10246201;28;20041;-52
2021/12/15 01:46:56;;;;;;;61.72;29.73;;;;;;;;;;10246273;28;20068;-53
2021/12/15 01:51:57;;;;;;;32.47;19.00;;;;;;;;;;10234963;28;20060;-50
2021/12/15 01:56:56;;;;;;;89.40;41.70;;;;;;;;;;10235111;28;20089;-52
2021/12/15 02:01:54;;;;;;;40.05;20.55;;;;;;;;;;10257745;28;20508;-54
2021/12/15 02:06:54;;;;;;;37.45;20.13;;;;;;;;;;10267474;28;20084;-52
2021/12/15 02:11:54;;;;;;;26.48;17.88;;;;;;;;;;10245416;28;20069;-50
2021/12/15 02:16:52;;;;;;;25.15;17.42;;;;;;;;;;10234855;28;20494;-53
2021/12/15 02:21:52;;;;;;;27.00;19.58;;;;;;;;;;10233188;28;20042;-51
2021/12/15 02:26:52;;;;;;;44.33;27.50;;;;;;;;;;10234913;28;20041;-55
2021/12/15 02:32:00;;;;;;;30.48;20.00;;;;;;;;;;10233598;28;20068;-54
2021/12/15 02:37:16;;;;;;;43.25;28.10;;;;;;;;;;10233630;28;20080;-51
2021/12/15 02:42:15;;;;;;;22.73;18.08;;;;;;;;;;10232705;28;20086;-55
2021/12/15 02:47:14;;;;;;;25.52;20.45;;;;;;;;;;10234402;28;20084;-53
2021/12/15 02:52:13;;;;;;;26.95;20.42;;;;;;;;;;10234377;28;20069;-54
2021/12/15 02:57:12;;;;;;;27.85;23.10;;;;;;;;;;10245141;28;20076;-54
2021/12/15 03:02:23;;;;;;;68.82;42.50;;;;;;;;;;10232143;28;20049;-51
2021/12/15 03:07:31;;;;;;;38.20;25.05;;;;;;;;;;10232663;28;20049;-54
2021/12/15 03:17:45;;;;;;;;;;;;;;;;;;10267375;28;20095;-52
2021/12/15 03:22:44;;;;;;;29.67;21.70;;;;;;;;;;10270715;28;20382;-50
2021/12/15 03:33:34;;;;;;;;;;;;;;;;;;10235573;28;20061;-56
2021/12/15 03:38:34;;;;;;;28.45;21.25;;;;;;;;;;10265175;28;19971;-53
2021/12/15 03:43:33;;;;;;;26.63;19.88;;;;;;;;;;10270193;28;20061;-52
2021/12/15 03:48:33;;;;;;;28.15;21.23;;;;;;;;;;10270782;28;20454;-53
2021/12/15 03:53:32;;;;;;;29.25;22.65;;;;;;;;;;10270979;28;20077;-54
2021/12/15 03:58:32;;;;;;;26.45;23.05;;;;;;;;;;10267589;28;20073;-54
2021/12/15 04:03:31;;;;;;;28.00;21.90;;;;;;;;;;10235011;28;20450;-55
2021/12/15 04:08:30;;;;;;;26.60;18.67;;;;;;;;;;10264065;28;20080;-54
2021/12/15 04:13:28;;;;;;;30.65;21.55;;;;;;;;;;10231737;28;20441;-54
2021/12/15 04:18:28;;;;;;;28.55;22.42;;;;;;;;;;10230813;28;20072;-55
2021/12/15 04:23:26;;;;;;;34.10;25.65;;;;;;;;;;10238951;28;20503;-54
2021/12/15 04:28:25;;;;;;;46.22;32.72;;;;;;;;;;10265861;28;20077;-52
2021/12/15 04:33:26;;;;;;;60.25;42.10;;;;;;;;;;10249982;28;20068;-51
2021/12/15 04:38:27;;;;;;;34.97;26.50;;;;;;;;;;10241095;28;20110;-55
2021/12/15 04:43:29;;;;;;;30.23;24.50;;;;;;;;;;10240759;28;20077;-49
2021/12/15 04:48:28;;;;;;;44.97;33.58;;;;;;;;;;10271526;28;20041;-51
2021/12/15 04:53:27;;;;;;;41.03;31.48;;;;;;;;;;10273329;28;20076;-55
2021/12/15 04:58:26;;;;;;;33.33;24.75;;;;;;;;;;10256247;28;20471;-54
2021/12/15 05:03:24;;;;;;;34.15;25.75;;;;;;;;;;10261772;28;20086;-54
2021/12/15 05:08:22;;;;;;;45.78;32.65;;;;;;;;;;10246279;28;20076;-54
2021/12/15 05:13:22;;;;;;;40.58;28.67;;;;;;;;;;10257606;28;20412;-54
2021/12/15 05:18:21;;;;;;;47.70;30.45;;;;;;;;;;10268657;28;20072;-50
2021/12/15 05:23:19;;;;;;;55.80;32.50;;;;;;;;;;10241865;28;20080;-53
2021/12/15 05:28:17;;;;;;;61.10;32.03;;;;;;;;;;10243784;28;20072;-55
2021/12/15 05:33:17;;;;;;;49.35;30.25;;;;;;;;;;10233639;28;20075;-53
2021/12/15 05:38:17;;;;;;;49.55;28.20;;;;;;;;;;10248736;28;20095;-55
2021/12/15 05:43:15;;;;;;;62.70;33.72;;;;;;;;;;10251796;28;20514;-56
2021/12/15 05:48:14;;;;;;;79.25;38.95;;;;;;;;;;10241678;28;20073;-55
2021/12/15 05:53:14;;;;;;;47.25;29.25;;;;;;;;;;10243334;28;20065;-55
2021/12/15 05:58:12;;;;;;;46.53;26.42;;;;;;;;;;10243276;28;20073;-55
2021/12/15 06:03:11;;;;;;;48.75;29.48;;;;;;;;;;10251960;28;20079;-52
2021/12/15 06:08:09;;;;;;;62.88;36.75;;;;;;;;;;10263181;28;20124;-54
2021/12/15 06:13:10;;;;;;;55.40;33.80;;;;;;;;;;10235471;28;20096;-52
2021/12/15 06:18:09;;;;;;;43.13;25.88;;;;;;;;;;10234887;28;20113;-54
2021/12/15 06:23:12;;;;;;;45.17;28.63;;;;;;;;;;10233437;28;20068;-53
2021/12/15 06:28:12;;;;;;;38.53;25.85;;;;;;;;;;10238699;28;20081;-52
2021/12/15 06:33:10;;;;;;;43.65;28.67;;;;;;;;;;10239138;28;20428;-55
2021/12/15 06:38:08;;;;;;;36.75;24.55;;;;;;;;;;10239023;28;20073;-55
2021/12/15 06:43:07;;;;;;;30.50;21.45;;;;;;;;;;10241347;28;20076;-53
2021/12/15 06:58:39;;;;;;;32.35;23.65;;;;;;;;;;10264917;28;20467;-54
2021/12/15 07:03:39;;;;;;;40.95;28.48;;;;;;;;;;10266167;28;20119;-54
2021/12/15 07:08:37;;;;;;;39.58;26.75;;;;;;;;;;10265137;28;20080;-53
2021/12/15 07:13:37;;;;;;;34.97;25.05;;;;;;;;;;10265072;28;20068;-54
2021/12/15 07:18:44;;;;;;;41.97;29.20;;;;;;;;;;10265044;28;20135;-53
2021/12/15 07:23:43;;;;;;;56.40;39.38;;;;;;;;;;10267237;28;20435;-55
2021/12/15 07:28:42;;;;;;;43.13;29.25;;;;;;;;;;10267562;28;20049;-53
2021/12/15 07:33:40;;;;;;;42.58;29.25;;;;;;;;;;10267404;28;20049;-55
2021/12/15 07:38:41;;;;;;;50.13;33.55;;;;;;;;;;10267352;28;20076;-51
2021/12/15 07:43:41;;;;;;;47.25;31.40;;;;;;;;;;10267256;28;20454;-51
2021/12/15 07:48:40;;;;;;;51.50;34.33;;;;;;;;;;10268244;28;20522;-49
2021/12/15 07:53:39;;;;;;;53.80;31.75;;;;;;;;;;10239097;28;20478;-53
2021/12/15 07:58:37;;;;;;;55.28;34.60;;;;;;;;;;10224764;28;20100;-50
2021/12/15 08:03:38;;;;;;;61.92;34.97;;;;;;;;;;10225772;28;20041;-51
2021/12/15 08:08:54;;;;;;;57.85;38.17;;;;;;;;;;10232939;28;20069;-50
2021/12/15 08:13:53;;;;;;;54.10;32.42;;;;;;;;;;10234248;28;20068;-49
2021/12/15 08:18:54;;;;;;;46.13;29.23;;;;;;;;;;10236534;28;20646;-50
2021/12/15 08:23:57;;;;;;;38.00;24.17;;;;;;;;;;10238391;28;20076;-51
2021/12/15 08:28:56;;;;;;;34.40;23.65;;;;;;;;;;10232505;28;20045;-51
2021/12/15 08:33:55;;;;;;;54.05;32.72;;;;;;;;;;10230429;28;20088;-49
2021/12/15 08:38:54;;;;;;;62.30;36.38;;;;;;;;;;10229801;28;20462;-53
2021/12/15 08:43:53;;;;;;;65.15;41.30;;;;;;;;;;10229797;28;20076;-54
2021/12/15 08:48:53;;;;;;;44.10;28.90;;;;;;;;;;10236245;28;20053;-53
2021/12/15 08:53:53;;;;;;;48.95;36.30;;;;;;;;;;10235907;28;20123;-53
2021/12/15 08:58:52;;;;;;;44.00;31.90;;;;;;;;;;10240816;28;20091;-55
2021/12/15 09:03:51;;;;;;;52.63;35.70;;;;;;;;;;10233498;28;20471;-55
2021/12/15 09:08:52;;;;;;;46.22;31.73;;;;;;;;;;10234534;28;20049;-54
2021/12/15 09:13:52;;;;;;;35.97;25.27;;;;;;;;;;10238260;28;20103;-50
2021/12/15 09:18:51;;;;;;;48.63;34.80;;;;;;;;;;10248301;28;20502;-56
2021/12/15 09:23:49;;;;;;;74.45;43.03;;;;;;;;;;10241240;28;20056;-53
2021/12/15 09:28:50;;;;;;;46.08;31.33;;;;;;;;;;10237905;28;20330;-56
2021/12/15 09:33:50;;;;;;;40.70;25.90;;;;;;;;;;10237900;28;20069;-52
2021/12/15 09:38:51;;;;;;;33.60;24.20;;;;;;;;;;10237413;28;20081;-57
2021/12/15 09:43:54;;;;;;;34.75;26.15;;;;;;;;;;10237179;28;20511;-56
2021/12/15 10:04:59;;;;;;;66.43;42.05;;;;;;;;;;10260195;28;20103;-55
2021/12/15 10:20:35;;;;;;;55.92;34.92;;;;;;;;;;10273083;28;20076;-54
2021/12/15 10:25:34;;;;;;;37.22;26.35;;;;;;;;;;10273147;28;20056;-53
2021/12/15 10:30:35;;;;;;;32.67;23.35;;;;;;;;;;10272992;28;20427;-53
2021/12/15 10:35:35;;;;;;;38.13;25.08;;;;;;;;;;10273464;28;20455;-52
2021/12/15 10:40:33;;;;;;;37.65;24.27;;;;;;;;;;10272837;28;20079;-55
2021/12/15 10:45:37;;;;;;;66.72;40.30;;;;;;;;;;10258126;28;20061;-55
2021/12/15 10:50:37;;;;;;;56.05;34.40;;;;;;;;;;10243796;28;20087;-52
2021/12/15 10:55:38;;;;;;;41.50;29.60;;;;;;;;;;10233254;28;20049;-50
2021/12/15 11:00:37;;;;;;;41.08;30.23;;;;;;;;;;10233243;28;20092;-50
2021/12/15 11:05:36;;;;;;;47.03;34.00;;;;;;;;;;10243030;28;20076;-53
2021/12/15 11:10:35;;;;;;;49.95;34.92;;;;;;;;;;10231559;28;20168;-53
2021/12/15 11:15:39;;;;;;;43.25;29.02;;;;;;;;;;10231602;28;20079;-49
2021/12/15 11:20:40;;;;;;;66.72;45.67;;;;;;;;;;10231383;28;20080;-54
2021/12/15 11:25:40;;;;;;;40.72;32.08;;;;;;;;;;10241468;28;20084;-54
2021/12/15 11:30:40;;;;;;;47.13;29.98;;;;;;;;;;10230374;28;20072;-52
2021/12/15 11:35:42;;;;;;;41.53;32.28;;;;;;;;;;10230743;28;20140;-52
2021/12/15 11:40:43;;;;;;;99.45;57.90;;;;;;;;;;10243343;28;20409;-55
2021/12/15 11:45:42;;;;;;;104.53;60.83;;;;;;;;;;10240666;28;20095;-55
2021/12/15 11:50:43;;;;;;;48.47;32.70;;;;;;;;;;10241217;28;20080;-53
2021/12/15 11:55:41;;;;;;;35.90;28.08;;;;;;;;;;10240493;28;20506;-53
2021/12/15 12:00:40;;;;;;;47.85;29.92;;;;;;;;;;10230474;28;20126;-54
2021/12/15 12:05:38;;;;;;;33.08;23.90;;;;;;;;;;10230522;28;20080;-55
2021/12/15 12:10:44;;;;;;;36.35;26.42;;;;;;;;;;10230590;28;20179;-50
2021/12/15 12:15:43;;;;;;;35.67;25.17;;;;;;;;;;10229772;28;20041;-54
2021/12/15 12:20:43;;;;;;;39.95;27.85;;;;;;;;;;10229756;28;20153;-54
2021/12/15 12:25:46;;;;;;;41.25;27.38;;;;;;;;;;10229196;28;20073;-53
2021/12/15 12:30:46;;;;;;;38.88;27.05;;;;;;;;;;10227808;28;20050;-51
2021/12/15 12:35:46;;;;;;;39.75;27.98;;;;;;;;;;10229081;28;20060;-54
2021/12/15 12:40:52;;;;;;;40.90;27.85;;;;;;;;;;10230515;28;20073;-54
2021/12/15 12:45:58;;;;;;;46.65;32.97;;;;;;;;;;10271247;28;20081;-55
2021/12/15 13:01:51;;;;;;;39.53;25.65;;;;;;;;;;10275630;28;20084;-54
2021/12/15 13:06:50;;;;;;;37.40;28.90;;;;;;;;;;10276159;28;20116;-54
2021/12/15 13:11:51;;;;;;;40.25;29.98;;;;;;;;;;10275971;28;20041;-52
2021/12/15 13:16:51;;;;;;;33.63;24.42;;;;;;;;;;10275718;28;20433;-54
2021/12/15 13:22:15;;;;;;;35.15;25.88;;;;;;;;;;10275865;28;20553;-50
2021/12/15 13:32:37;;;;;;;33.25;24.23;;;;;;;;;;10274843;28;20080;-50
2021/12/15 13:37:56;;;;;;;45.50;28.80;;;;;;;;;;10244572;28;20081;-56
2021/12/15 13:43:03;;;;;;;46.85;31.20;;;;;;;;;;10267227;28;20087;-53
2021/12/15 13:48:02;;;;;;;65.63;43.05;;;;;;;;;;10274655;28;20526;-54
2021/12/15 13:53:02;;;;;;;32.92;24.05;;;;;;;;;;10275230;28;20041;-54
2021/12/15 13:58:14;;;;;;;28.92;22.55;;;;;;;;;;10274206;28;20077;-54
2021/12/15 14:03:16;;;;;;;31.88;20.63;;;;;;;;;;10273601;28;20076;-53
2021/12/15 14:08:15;;;;;;;42.35;26.40;;;;;;;;;;10273883;28;20084;-54
2021/12/15 14:13:15;;;;;;;29.73;21.33;;;;;;;;;;10234090;28;20049;-56
2021/12/15 14:18:15;;;;;;;37.53;26.27;;;;;;;;;;10241290;28;20072;-54
2021/12/15 14:23:15;;;;;;;38.10;27.42;;;;;;;;;;10242218;28;20077;-55
2021/12/15 14:28:17;;;;;;;41.15;28.17;;;;;;;;;;10235138;28;20384;-53
2021/12/15 14:33:23;;;;;;;41.47;30.65;;;;;;;;;;10234396;28;20083;-52
2021/12/15 14:38:32;;;;;;;66.60;43.85;;;;;;;;;;10234698;28;20060;-54
2021/12/15 14:43:31;;;;;;;66.97;43.78;;;;;;;;;;10233908;28;20081;-53
2021/12/15 14:48:30;;;;;;;53.80;35.53;;;;;;;;;;10233869;28;20084;-51
2021/12/15 14:53:29;;;;;;;76.57;45.28;;;;;;;;;;10234162;28;20077;-54
2021/12/15 14:58:27;;;;;;;264.23;140.70;;;;;;;;;;10242140;28;20088;-53
2021/12/15 15:03:27;;;;;;;189.70;101.97;;;;;;;;;;10237264;28;20073;-53
2021/12/15 15:08:26;;;;;;;95.32;58.35;;;;;;;;;;10233787;28;20077;-54
2021/12/15 15:13:26;;;;;;;91.70;57.33;;;;;;;;;;10241101;28;20081;-53
2021/12/15 15:18:27;;;;;;;89.25;55.10;;;;;;;;;;10243662;28;20315;-54
2021/12/15 15:23:28;;;;;;;65.93;46.60;;;;;;;;;;10236378;28;20474;-54
2021/12/15 15:28:29;;;;;;;88.60;50.47;;;;;;;;;;10232408;28;20507;-54
2021/12/15 15:33:29;;;;;;;105.38;60.83;;;;;;;;;;10233080;28;20050;-54
2021/12/15 15:38:30;;;;;;;118.53;68.45;;;;;;;;;;10232552;28;20080;-53
2021/12/15 15:43:34;;;;;;;94.07;60.03;;;;;;;;;;10232610;28;20479;-54
2021/12/15 15:48:34;;;;;;;77.73;48.97;;;;;;;;;;10232426;28;20479;-53
2021/12/15 15:53:34;;;;;;;87.32;58.47;;;;;;;;;;10241176;28;20305;-53
2021/12/15 15:58:33;;;;;;;73.25;48.58;;;;;;;;;;10235490;28;20088;-53
2021/12/15 16:03:35;;;;;;;69.07;43.40;;;;;;;;;;10232309;28;20073;-52
2021/12/15 16:08:36;;;;;;;74.47;48.28;;;;;;;;;;10232450;28;20053;-53
2021/12/15 16:13:41;;;;;;;62.47;43.38;;;;;;;;;;10232445;28;20080;-53
2021/12/15 16:18:42;;;;;;;61.77;40.27;;;;;;;;;;10240296;28;20080;-54
2021/12/15 16:23:42;;;;;;;115.43;65.10;;;;;;;;;;10240265;28;20069;-52
2021/12/15 16:28:42;;;;;;;101.97;53.50;;;;;;;;;;10240113;28;20077;-54
2021/12/15 16:33:43;;;;;;;60.10;35.35;;;;;;;;;;10238628;28;20081;-54
2021/12/15 16:38:45;;;;;;;63.63;41.40;;;;;;;;;;10250146;28;20076;-54
2021/12/15 16:43:45;;;;;;;59.78;39.97;;;;;;;;;;10272818;28;20069;-53
2021/12/15 16:48:44;;;;;;;77.60;44.97;;;;;;;;;;10241685;28;20073;-55
2021/12/15 16:53:46;;;;;;;95.65;52.60;;;;;;;;;;10238801;28;20077;-54
2021/12/15 16:59:04;;;;;;;74.93;49.25;;;;;;;;;;10245399;28;20470;-55
2021/12/15 17:04:04;;;;;;;99.57;56.13;;;;;;;;;;10238508;28;20072;-53
2021/12/15 17:09:04;;;;;;;77.45;54.35;;;;;;;;;;10238569;28;20073;-55
2021/12/15 17:14:06;;;;;;;79.95;58.55;;;;;;;;;;10238317;28;20490;-55
2021/12/15 17:19:13;;;;;;;111.43;80.35;;;;;;;;;;10237973;28;20077;-55
2021/12/15 17:24:14;;;;;;;43.83;28.10;;;;;;;;;;10263389;28;20085;-54
2021/12/15 17:29:14;;;;;;;35.53;24.55;;;;;;;;;;10239615;28;20037;-54
2021/12/15 17:34:14;;;;;;;40.97;27.45;;;;;;;;;;10237650;28;20079;-54
2021/12/15 17:39:16;;;;;;;52.90;32.72;;;;;;;;;;10245567;28;20490;-54
2021/12/15 17:44:16;;;;;;;58.47;37.88;;;;;;;;;;10238273;28;20468;-54
2021/12/15 17:49:17;;;;;;;57.70;36.80;;;;;;;;;;10237766;28;20041;-56
2021/12/15 17:54:21;;;;;;;81.97;50.83;;;;;;;;;;10251160;28;20045;-52
2021/12/15 17:59:20;;;;;;;62.22;38.55;;;;;;;;;;10243501;28;20069;-53
2021/12/15 18:04:19;;;;;;;44.30;31.40;;;;;;;;;;10248557;28;20483;-53
2021/12/15 18:09:24;;;;;;;52.00;34.53;;;;;;;;;;10251761;28;20155;-52
2021/12/15 18:14:23;;;;;;;52.05;35.30;;;;;;;;;;10247316;28;20084;-51
2021/12/15 18:19:21;;;;;;;68.85;43.35;;;;;;;;;;10238555;28;20499;-53
2021/12/15 18:24:22;;;;;;;54.90;36.58;;;;;;;;;;10250903;28;20076;-49
2021/12/15 18:29:22;;;;;;;43.13;30.08;;;;;;;;;;10255406;28;20483;-49
2021/12/15 18:34:23;;;;;;;33.58;23.80;;;;;;;;;;10270233;28;20446;-50
2021/12/15 18:39:24;;;;;;;36.53;24.90;;;;;;;;;;10243723;28;20088;-48
2021/12/15 18:44:23;;;;;;;63.70;43.58;;;;;;;;;;10257019;28;20099;-50
2021/12/15 18:49:26;;;;;;;59.65;41.58;;;;;;;;;;10251014;28;20073;-51
2021/12/15 18:54:26;;;;;;;46.05;29.58;;;;;;;;;;10238612;28;20439;-52
2021/12/15 18:59:25;;;;;;;30.75;21.95;;;;;;;;;;10255871;28;20080;-56
2021/12/15 19:04:25;;;;;;;40.33;24.50;;;;;;;;;;10250434;28;20088;-55
2021/12/15 19:09:25;;;;;;;32.72;23.52;;;;;;;;;;10248305;28;20065;-54
2021/12/15 19:14:24;;;;;;;35.63;26.98;;;;;;;;;;10244803;28;20467;-51
2021/12/15 19:19:24;;;;;;;44.47;30.15;;;;;;;;;;10241424;28;20061;-51
2021/12/15 19:24:23;;;;;;;37.22;28.05;;;;;;;;;;10243648;28;20085;-54
2021/12/15 19:29:23;;;;;;;32.00;21.73;;;;;;;;;;10242510;28;20073;-52
2021/12/15 19:34:21;;;;;;;33.67;23.67;;;;;;;;;;10242564;28;20503;-53
2021/12/15 19:39:21;;;;;;;33.33;23.77;;;;;;;;;;10244643;28;20053;-50
2021/12/15 19:44:20;;;;;;;32.10;23.10;;;;;;;;;;10238300;28;20584;-54
2021/12/15 19:49:21;;;;;;;34.58;26.33;;;;;;;;;;10241998;28;20068;-51
2021/12/15 19:54:20;;;;;;;36.78;28.85;;;;;;;;;;10251371;28;20412;-52
2021/12/15 19:59:20;;;;;;;76.30;47.30;;;;;;;;;;10242969;28;20089;-52
2021/12/15 20:04:21;;;;;;;45.03;31.95;;;;;;;;;;10242777;28;20064;-53
2021/12/15 20:09:21;;;;;;;42.97;31.55;;;;;;;;;;10246923;28;20079;-54
2021/12/15 20:14:21;;;;;;;78.90;51.55;;;;;;;;;;10240063;28;20065;-50
2021/12/15 20:19:23;;;;;;;150.35;96.90;;;;;;;;;;10247188;28;20083;-53
2021/12/15 20:24:23;;;;;;;42.92;28.83;;;;;;;;;;10243847;28;20085;-54
2021/12/15 20:29:22;;;;;;;97.45;61.40;;;;;;;;;;10244955;28;20072;-54
2021/12/15 20:34:23;;;;;;;59.63;39.97;;;;;;;;;;10240990;28;20057;-53
2021/12/15 20:39:22;;;;;;;184.23;117.18;;;;;;;;;;10244983;28;20072;-55
2021/12/15 20:44:20;;;;;;;112.72;72.78;;;;;;;;;;10243687;28;20107;-54
2021/12/15 20:49:19;;;;;;;97.57;64.13;;;;;;;;;;10243982;28;20864;-54
2021/12/15 20:54:19;;;;;;;156.02;104.03;;;;;;;;;;10244839;28;20068;-52
2021/12/15 20:59:18;;;;;;;238.05;145.10;;;;;;;;;;10237823;28;20080;-52
2021/12/15 21:04:17;;;;;;;309.52;194.68;;;;;;;;;;10249703;28;20064;-54
2021/12/15 21:09:18;;;;;;;172.32;113.85;;;;;;;;;;10251789;28;20490;-54
2021/12/15 21:14:19;;;;;;;97.53;61.13;;;;;;;;;;10251648;28;20080;-53
2021/12/15 21:19:19;;;;;;;94.68;60.53;;;;;;;;;;10248679;28;20056;-55
2021/12/15 21:24:18;;;;;;;40.60;28.02;;;;;;;;;;10244071;28;20084;-54
2021/12/15 21:29:19;;;;;;;62.45;44.50;;;;;;;;;;10245152;28;20095;-52
2021/12/15 21:34:17;;;;;;;81.82;56.78;;;;;;;;;;10241919;28;20089;-53
2021/12/15 21:39:16;;;;;;;39.53;28.75;;;;;;;;;;10251947;28;20068;-54
2021/12/15 21:44:15;;;;;;;50.35;39.17;;;;;;;;;;10245421;28;20064;-54
2021/12/15 21:49:15;;;;;;;33.45;24.95;;;;;;;;;;10246378;28;20490;-52
2021/12/15 21:54:13;;;;;;;32.53;25.08;;;;;;;;;;10245312;28;20514;-49
2021/12/15 21:59:12;;;;;;;44.92;33.60;;;;;;;;;;10246227;28;20076;-51
2021/12/15 22:04:14;;;;;;;56.97;44.50;;;;;;;;;;10244044;28;20465;-52
2021/12/15 22:09:16;;;;;;;53.42;40.50;;;;;;;;;;10244637;28;20077;-55
2021/12/15 22:14:14;;;;;;;41.67;33.28;;;;;;;;;;10243064;28;20466;-53
2021/12/15 22:19:13;;;;;;;73.07;52.63;;;;;;;;;;10246904;28;20191;-52
2021/12/15 22:24:13;;;;;;;475.20;221.52;;;;;;;;;;10244585;28;20128;-55
2021/12/15 22:29:14;;;;;;;207.60;110.95;;;;;;;;;;10248027;28;20045;-51
2021/12/15 22:34:14;;;;;;;69.95;53.88;;;;;;;;;;10245278;28;20069;-54
2021/12/15 22:39:14;;;;;;;41.78;32.88;;;;;;;;;;10242776;28;20056;-54
2021/12/15 22:44:14;;;;;;;35.30;26.85;;;;;;;;;;10243531;28;20088;-52
2021/12/15 22:49:13;;;;;;;40.30;29.25;;;;;;;;;;10243037;28;20061;-54
2021/12/15 22:54:11;;;;;;;38.13;26.70;;;;;;;;;;10245059;28;20061;-53
2021/12/15 22:59:10;;;;;;;36.13;25.67;;;;;;;;;;10246339;28;20057;-54
2021/12/15 23:04:11;;;;;;;33.15;24.38;;;;;;;;;;10243467;28;20076;-54
2021/12/15 23:09:10;;;;;;;33.22;24.63;;;;;;;;;;10241516;28;20095;-49
2021/12/15 23:14:08;;;;;;;23.85;17.38;;;;;;;;;;10241534;28;20061;-54
2021/12/15 23:19:07;;;;;;;24.02;17.83;;;;;;;;;;10242088;28;20069;-55
2021/12/15 23:24:07;;;;;;;28.27;18.75;;;;;;;;;;10241379;28;20081;-54
2021/12/15 23:29:05;;;;;;;24.00;17.92;;;;;;;;;;10244062;28;20072;-54
2021/12/15 23:34:05;;;;;;;39.95;26.88;;;;;;;;;;10240791;28;20073;-55
2021/12/15 23:39:16;;;;;;;27.52;19.10;;;;;;;;;;10243056;28;20064;-53
